sensor_id;sensor_type;location;lat;lon;timestamp;P1;durP1;ratioP1;P2;durP2;ratioP2
24650;SDS011;12783;48.824;8.662;2024-02-16T00:02:02;0.75;;;0.60;;
24650;SDS011;12783;48.824;8.662;2024-02-16T00:04:29;1.05;;;0.90;;
24650;SDS011;12783;48.824;8.662;2024-02-16T00:06:57;0.40;;;0.40;;
24650;SDS011;12783;48.824;8.662;2024-02-16T00:09:24;2.00;;;0.73;;
24650;SDS011;12783;48.824;8.662;2024-02-16T00:11:51;3.10;;;0.80;;
24650;SDS011;12783;48.824;8.662;2024-02-16T00:14:19;2.92;;;0.70;;
24650;SDS011;12783;48.824;8.662;2024-02-16T00:16:47;1.48;;;0.80;;
24650;SDS011;12783;48.824;8.662;2024-02-16T00:19:15;0.65;;;0.52;;
24650;SDS011;12783;48.824;8.662;2024-02-16T00:21:42;2.38;;;0.75;;
24650;SDS011;12783;48.824;8.662;2024-02-16T00:24:09;0.68;;;0.57;;
24650;SDS011;12783;48.824;8.662;2024-02-16T00:26:37;0.98;;;0.68;;
24650;SDS011;12783;48.824;8.662;2024-02-16T00:29:06;0.60;;;0.60;;
24650;SDS011;12783;48.824;8.662;2024-02-16T00:31:33;0.93;;;0.63;;
24650;SDS011;12783;48.824;8.662;2024-02-16T00:34:00;0.63;;;0.60;;
24650;SDS011;12783;48.824;8.662;2024-02-16T00:36:27;1.05;;;0.60;;
24650;SDS011;12783;48.824;8.662;2024-02-16T00:38:54;0.77;;;0.60;;
24650;SDS011;12783;48.824;8.662;2024-02-16T00:41:22;1.08;;;0.55;;
24650;SDS011;12783;48.824;8.662;2024-02-16T00:43:49;1.08;;;0.57;;
24650;SDS011;12783;48.824;8.662;2024-02-16T00:46:18;0.75;;;0.43;;
24650;SDS011;12783;48.824;8.662;2024-02-16T00:48:45;0.93;;;0.60;;
24650;SDS011;12783;48.824;8.662;2024-02-16T00:51:13;0.82;;;0.50;;
24650;SDS011;12783;48.824;8.662;2024-02-16T00:53:40;1.10;;;0.52;;
24650;SDS011;12783;48.824;8.662;2024-02-16T00:56:07;0.68;;;0.50;;
24650;SDS011;12783;48.824;8.662;2024-02-16T00:58:35;0.90;;;0.65;;
24650;SDS011;12783;48.824;8.662;2024-02-16T01:01:03;0.90;;;0.40;;
24650;SDS011;12783;48.824;8.662;2024-02-16T01:03:31;4.18;;;0.65;;
24650;SDS011;12783;48.824;8.662;2024-02-16T01:05:58;1.38;;;0.32;;
24650;SDS011;12783;48.824;8.662;2024-02-16T01:08:25;0.82;;;0.50;;
24650;SDS011;12783;48.824;8.662;2024-02-16T01:10:53;1.05;;;0.60;;
24650;SDS011;12783;48.824;8.662;2024-02-16T01:13:20;2.33;;;0.70;;
24650;SDS011;12783;48.824;8.662;2024-02-16T01:15:47;3.38;;;0.73;;
24650;SDS011;12783;48.824;8.662;2024-02-16T01:18:14;1.08;;;0.75;;
24650;SDS011;12783;48.824;8.662;2024-02-16T01:20:42;0.85;;;0.50;;
24650;SDS011;12783;48.824;8.662;2024-02-16T01:23:09;1.73;;;0.90;;
24650;SDS011;12783;48.824;8.662;2024-02-16T01:25:36;0.80;;;0.70;;
24650;SDS011;12783;48.824;8.662;2024-02-16T01:28:02;1.52;;;0.70;;
24650;SDS011;12783;48.824;8.662;2024-02-16T01:30:30;1.48;;;0.60;;
24650;SDS011;12783;48.824;8.662;2024-02-16T01:32:57;0.60;;;0.60;;
24650;SDS011;12783;48.824;8.662;2024-02-16T01:35:24;3.15;;;0.70;;
24650;SDS011;12783;48.824;8.662;2024-02-16T01:37:51;0.90;;;0.65;;
24650;SDS011;12783;48.824;8.662;2024-02-16T01:40:18;0.77;;;0.60;;
24650;SDS011;12783;48.824;8.662;2024-02-16T01:42:46;0.70;;;0.60;;
24650;SDS011;12783;48.824;8.662;2024-02-16T01:45:13;1.00;;;0.40;;
24650;SDS011;12783;48.824;8.662;2024-02-16T01:47:43;0.50;;;0.50;;
24650;SDS011;12783;48.824;8.662;2024-02-16T01:50:14;1.00;;;0.52;;
24650;SDS011;12783;48.824;8.662;2024-02-16T01:52:43;1.27;;;0.70;;
24650;SDS011;12783;48.824;8.662;2024-02-16T01:55:12;0.80;;;0.50;;
24650;SDS011;12783;48.824;8.662;2024-02-16T01:57:39;1.13;;;0.63;;
24650;SDS011;12783;48.824;8.662;2024-02-16T02:00:08;0.82;;;0.47;;
24650;SDS011;12783;48.824;8.662;2024-02-16T02:02:36;0.63;;;0.60;;
24650;SDS011;12783;48.824;8.662;2024-02-16T02:05:04;1.25;;;0.68;;
24650;SDS011;12783;48.824;8.662;2024-02-16T02:07:32;1.10;;;0.80;;
24650;SDS011;12783;48.824;8.662;2024-02-16T02:09:59;0.63;;;0.50;;
24650;SDS011;12783;48.824;8.662;2024-02-16T02:12:26;0.95;;;0.50;;
24650;SDS011;12783;48.824;8.662;2024-02-16T02:14:53;0.75;;;0.47;;
24650;SDS011;12783;48.824;8.662;2024-02-16T02:17:20;0.98;;;0.65;;
24650;SDS011;12783;48.824;8.662;2024-02-16T02:19:48;3.17;;;0.60;;
24650;SDS011;12783;48.824;8.662;2024-02-16T02:22:15;0.80;;;0.60;;
24650;SDS011;12783;48.824;8.662;2024-02-16T02:24:44;0.93;;;0.57;;
24650;SDS011;12783;48.824;8.662;2024-02-16T02:27:12;1.08;;;0.50;;
24650;SDS011;12783;48.824;8.662;2024-02-16T02:29:40;0.85;;;0.70;;
24650;SDS011;12783;48.824;8.662;2024-02-16T02:32:08;0.73;;;0.40;;
24650;SDS011;12783;48.824;8.662;2024-02-16T02:34:36;0.57;;;0.50;;
24650;SDS011;12783;48.824;8.662;2024-02-16T02:37:03;0.88;;;0.70;;
24650;SDS011;12783;48.824;8.662;2024-02-16T02:39:33;0.70;;;0.60;;
24650;SDS011;12783;48.824;8.662;2024-02-16T02:42:01;1.40;;;0.70;;
24650;SDS011;12783;48.824;8.662;2024-02-16T02:44:28;0.98;;;0.60;;
24650;SDS011;12783;48.824;8.662;2024-02-16T02:46:57;0.50;;;0.50;;
24650;SDS011;12783;48.824;8.662;2024-02-16T02:49:24;1.27;;;0.70;;
24650;SDS011;12783;48.824;8.662;2024-02-16T02:51:51;0.82;;;0.60;;
24650;SDS011;12783;48.824;8.662;2024-02-16T02:54:18;0.70;;;0.63;;
24650;SDS011;12783;48.824;8.662;2024-02-16T02:56:45;0.93;;;0.60;;
24650;SDS011;12783;48.824;8.662;2024-02-16T02:59:12;2.47;;;0.70;;
24650;SDS011;12783;48.824;8.662;2024-02-16T03:01:40;3.30;;;0.60;;
24650;SDS011;12783;48.824;8.662;2024-02-16T03:04:07;3.15;;;0.60;;
24650;SDS011;12783;48.824;8.662;2024-02-16T03:06:36;1.00;;;0.55;;
24650;SDS011;12783;48.824;8.662;2024-02-16T03:09:03;1.25;;;0.60;;
24650;SDS011;12783;48.824;8.662;2024-02-16T03:11:30;0.95;;;0.60;;
24650;SDS011;12783;48.824;8.662;2024-02-16T03:13:57;1.27;;;0.60;;
24650;SDS011;12783;48.824;8.662;2024-02-16T03:16:24;1.15;;;0.68;;
24650;SDS011;12783;48.824;8.662;2024-02-16T03:18:51;1.88;;;0.60;;
24650;SDS011;12783;48.824;8.662;2024-02-16T03:21:21;1.05;;;0.73;;
24650;SDS011;12783;48.824;8.662;2024-02-16T03:23:48;1.08;;;0.50;;
24650;SDS011;12783;48.824;8.662;2024-02-16T03:26:15;1.20;;;0.68;;
24650;SDS011;12783;48.824;8.662;2024-02-16T03:28:47;1.05;;;0.70;;
24650;SDS011;12783;48.824;8.662;2024-02-16T03:31:18;0.82;;;0.70;;
24650;SDS011;12783;48.824;8.662;2024-02-16T03:33:47;1.70;;;0.60;;
24650;SDS011;12783;48.824;8.662;2024-02-16T03:36:15;0.65;;;0.60;;
24650;SDS011;12783;48.824;8.662;2024-02-16T03:38:45;2.83;;;0.82;;
24650;SDS011;12783;48.824;8.662;2024-02-16T03:41:20;0.90;;;0.70;;
24650;SDS011;12783;48.824;8.662;2024-02-16T03:43:49;1.98;;;0.65;;
24650;SDS011;12783;48.824;8.662;2024-02-16T03:46:18;0.38;;;0.35;;
24650;SDS011;12783;48.824;8.662;2024-02-16T03:48:45;0.80;;;0.63;;
24650;SDS011;12783;48.824;8.662;2024-02-16T03:51:12;1.42;;;0.60;;
24650;SDS011;12783;48.824;8.662;2024-02-16T03:53:39;0.77;;;0.70;;
24650;SDS011;12783;48.824;8.662;2024-02-16T03:56:06;1.15;;;0.60;;
24650;SDS011;12783;48.824;8.662;2024-02-16T03:58:34;0.50;;;0.50;;
24650;SDS011;12783;48.824;8.662;2024-02-16T04:01:02;1.90;;;0.60;;
24650;SDS011;12783;48.824;8.662;2024-02-16T04:03:29;1.17;;;0.47;;
24650;SDS011;12783;48.824;8.662;2024-02-16T04:05:56;0.82;;;0.50;;
24650;SDS011;12783;48.824;8.662;2024-02-16T04:08:23;0.95;;;0.52;;
24650;SDS011;12783;48.824;8.662;2024-02-16T04:10:50;0.93;;;0.60;;
24650;SDS011;12783;48.824;8.662;2024-02-16T04:13:17;2.60;;;0.90;;
24650;SDS011;12783;48.824;8.662;2024-02-16T04:15:43;0.75;;;0.50;;
24650;SDS011;12783;48.824;8.662;2024-02-16T04:18:11;3.13;;;0.80;;
24650;SDS011;12783;48.824;8.662;2024-02-16T04:20:38;0.80;;;0.70;;
24650;SDS011;12783;48.824;8.662;2024-02-16T04:23:07;3.13;;;0.75;;
24650;SDS011;12783;48.824;8.662;2024-02-16T04:25:34;1.33;;;0.60;;
24650;SDS011;12783;48.824;8.662;2024-02-16T04:28:01;0.50;;;0.50;;
24650;SDS011;12783;48.824;8.662;2024-02-16T04:30:28;2.30;;;0.70;;
24650;SDS011;12783;48.824;8.662;2024-02-16T04:32:55;0.98;;;0.70;;
24650;SDS011;12783;48.824;8.662;2024-02-16T04:35:22;0.95;;;0.52;;
24650;SDS011;12783;48.824;8.662;2024-02-16T04:37:49;0.50;;;0.50;;
24650;SDS011;12783;48.824;8.662;2024-02-16T04:40:16;0.85;;;0.65;;
24650;SDS011;12783;48.824;8.662;2024-02-16T04:42:43;1.80;;;0.60;;
24650;SDS011;12783;48.824;8.662;2024-02-16T04:45:11;0.95;;;0.70;;
24650;SDS011;12783;48.824;8.662;2024-02-16T04:47:39;1.00;;;0.60;;
24650;SDS011;12783;48.824;8.662;2024-02-16T04:50:06;1.20;;;0.65;;
24650;SDS011;12783;48.824;8.662;2024-02-16T04:52:37;1.60;;;0.63;;
24650;SDS011;12783;48.824;8.662;2024-02-16T04:55:06;0.68;;;0.50;;
24650;SDS011;12783;48.824;8.662;2024-02-16T04:57:34;0.77;;;0.70;;
24650;SDS011;12783;48.824;8.662;2024-02-16T05:00:02;1.83;;;0.65;;
24650;SDS011;12783;48.824;8.662;2024-02-16T05:02:30;1.52;;;0.57;;
24650;SDS011;12783;48.824;8.662;2024-02-16T05:04:57;0.57;;;0.50;;
24650;SDS011;12783;48.824;8.662;2024-02-16T05:07:28;0.80;;;0.60;;
24650;SDS011;12783;48.824;8.662;2024-02-16T05:09:57;1.15;;;0.70;;
24650;SDS011;12783;48.824;8.662;2024-02-16T05:12:25;3.95;;;0.50;;
24650;SDS011;12783;48.824;8.662;2024-02-16T05:14:52;1.42;;;0.60;;
24650;SDS011;12783;48.824;8.662;2024-02-16T05:17:20;1.30;;;0.60;;
24650;SDS011;12783;48.824;8.662;2024-02-16T05:19:48;0.85;;;0.63;;
24650;SDS011;12783;48.824;8.662;2024-02-16T05:22:16;2.75;;;0.75;;
24650;SDS011;12783;48.824;8.662;2024-02-16T05:24:44;0.65;;;0.52;;
24650;SDS011;12783;48.824;8.662;2024-02-16T05:27:12;0.60;;;0.60;;
24650;SDS011;12783;48.824;8.662;2024-02-16T05:29:40;0.77;;;0.70;;
24650;SDS011;12783;48.824;8.662;2024-02-16T05:32:07;0.90;;;0.60;;
24650;SDS011;12783;48.824;8.662;2024-02-16T05:34:34;1.15;;;0.60;;
24650;SDS011;12783;48.824;8.662;2024-02-16T05:37:05;1.60;;;0.80;;
24650;SDS011;12783;48.824;8.662;2024-02-16T05:39:33;0.70;;;0.70;;
24650;SDS011;12783;48.824;8.662;2024-02-16T05:42:09;0.77;;;0.60;;
24650;SDS011;12783;48.824;8.662;2024-02-16T05:44:36;2.33;;;0.73;;
24650;SDS011;12783;48.824;8.662;2024-02-16T05:47:04;0.90;;;0.60;;
24650;SDS011;12783;48.824;8.662;2024-02-16T05:49:31;1.67;;;0.70;;
24650;SDS011;12783;48.824;8.662;2024-02-16T05:51:58;0.85;;;0.65;;
24650;SDS011;12783;48.824;8.662;2024-02-16T05:54:47;1.05;;;0.50;;
24650;SDS011;12783;48.824;8.662;2024-02-16T05:57:16;1.08;;;0.73;;
24650;SDS011;12783;48.824;8.662;2024-02-16T05:59:43;1.38;;;0.70;;
24650;SDS011;12783;48.824;8.662;2024-02-16T06:02:12;3.63;;;0.80;;
24650;SDS011;12783;48.824;8.662;2024-02-16T06:04:39;0.60;;;0.50;;
24650;SDS011;12783;48.824;8.662;2024-02-16T06:07:06;1.77;;;0.68;;
24650;SDS011;12783;48.824;8.662;2024-02-16T06:09:34;0.75;;;0.70;;
24650;SDS011;12783;48.824;8.662;2024-02-16T06:12:02;1.23;;;0.63;;
24650;SDS011;12783;48.824;8.662;2024-02-16T06:14:31;1.80;;;0.98;;
24650;SDS011;12783;48.824;8.662;2024-02-16T06:17:04;0.90;;;0.60;;
24650;SDS011;12783;48.824;8.662;2024-02-16T06:19:35;1.85;;;0.88;;
24650;SDS011;12783;48.824;8.662;2024-02-16T06:22:02;0.77;;;0.70;;
24650;SDS011;12783;48.824;8.662;2024-02-16T06:24:29;1.77;;;0.70;;
24650;SDS011;12783;48.824;8.662;2024-02-16T06:26:56;1.20;;;0.88;;
24650;SDS011;12783;48.824;8.662;2024-02-16T06:29:23;3.40;;;0.82;;
24650;SDS011;12783;48.824;8.662;2024-02-16T06:31:51;2.72;;;0.63;;
24650;SDS011;12783;48.824;8.662;2024-02-16T06:34:18;1.08;;;0.70;;
24650;SDS011;12783;48.824;8.662;2024-02-16T06:36:46;3.20;;;0.90;;
24650;SDS011;12783;48.824;8.662;2024-02-16T06:39:15;1.35;;;0.80;;
24650;SDS011;12783;48.824;8.662;2024-02-16T06:41:43;1.17;;;0.60;;
24650;SDS011;12783;48.824;8.662;2024-02-16T06:44:15;1.42;;;0.90;;
24650;SDS011;12783;48.824;8.662;2024-02-16T06:46:47;1.58;;;0.85;;
24650;SDS011;12783;48.824;8.662;2024-02-16T06:49:13;1.17;;;0.85;;
24650;SDS011;12783;48.824;8.662;2024-02-16T06:51:40;1.30;;;0.80;;
24650;SDS011;12783;48.824;8.662;2024-02-16T06:54:07;1.42;;;0.82;;
24650;SDS011;12783;48.824;8.662;2024-02-16T06:56:34;0.95;;;0.63;;
24650;SDS011;12783;48.824;8.662;2024-02-16T06:59:02;2.22;;;0.90;;
24650;SDS011;12783;48.824;8.662;2024-02-16T07:01:29;1.00;;;0.70;;
24650;SDS011;12783;48.824;8.662;2024-02-16T07:03:56;1.15;;;0.82;;
24650;SDS011;12783;48.824;8.662;2024-02-16T07:06:23;1.70;;;0.70;;
24650;SDS011;12783;48.824;8.662;2024-02-16T07:08:50;0.95;;;0.70;;
24650;SDS011;12783;48.824;8.662;2024-02-16T07:11:17;0.70;;;0.70;;
24650;SDS011;12783;48.824;8.662;2024-02-16T07:13:47;0.95;;;0.80;;
24650;SDS011;12783;48.824;8.662;2024-02-16T07:16:14;0.80;;;0.70;;
24650;SDS011;12783;48.824;8.662;2024-02-16T07:18:40;1.95;;;0.60;;
24650;SDS011;12783;48.824;8.662;2024-02-16T07:21:08;1.23;;;1.00;;
24650;SDS011;12783;48.824;8.662;2024-02-16T07:23:36;2.40;;;0.63;;
24650;SDS011;12783;48.824;8.662;2024-02-16T07:26:03;1.35;;;0.80;;
24650;SDS011;12783;48.824;8.662;2024-02-16T07:28:33;2.67;;;0.80;;
24650;SDS011;12783;48.824;8.662;2024-02-16T07:31:00;1.30;;;0.70;;
24650;SDS011;12783;48.824;8.662;2024-02-16T07:33:27;1.58;;;0.80;;
24650;SDS011;12783;48.824;8.662;2024-02-16T07:35:55;1.13;;;0.90;;
24650;SDS011;12783;48.824;8.662;2024-02-16T07:38:22;1.77;;;0.90;;
24650;SDS011;12783;48.824;8.662;2024-02-16T07:40:49;2.30;;;0.77;;
24650;SDS011;12783;48.824;8.662;2024-02-16T07:43:19;1.20;;;0.80;;
24650;SDS011;12783;48.824;8.662;2024-02-16T07:45:48;1.30;;;0.68;;
24650;SDS011;12783;48.824;8.662;2024-02-16T07:48:16;0.80;;;0.60;;
24650;SDS011;12783;48.824;8.662;2024-02-16T07:50:43;1.77;;;0.70;;
24650;SDS011;12783;48.824;8.662;2024-02-16T07:53:10;1.50;;;0.80;;
24650;SDS011;12783;48.824;8.662;2024-02-16T07:55:39;2.08;;;0.80;;
24650;SDS011;12783;48.824;8.662;2024-02-16T07:58:06;1.33;;;0.80;;
24650;SDS011;12783;48.824;8.662;2024-02-16T08:00:33;1.05;;;0.70;;
24650;SDS011;12783;48.824;8.662;2024-02-16T08:03:00;4.13;;;0.98;;
24650;SDS011;12783;48.824;8.662;2024-02-16T08:05:27;0.85;;;0.77;;
24650;SDS011;12783;48.824;8.662;2024-02-16T08:07:54;1.58;;;0.80;;
24650;SDS011;12783;48.824;8.662;2024-02-16T08:10:22;1.15;;;0.88;;
24650;SDS011;12783;48.824;8.662;2024-02-16T08:12:51;1.10;;;0.73;;
24650;SDS011;12783;48.824;8.662;2024-02-16T08:15:19;1.83;;;0.90;;
24650;SDS011;12783;48.824;8.662;2024-02-16T08:17:52;1.00;;;0.60;;
24650;SDS011;12783;48.824;8.662;2024-02-16T08:20:20;2.13;;;0.98;;
24650;SDS011;12783;48.824;8.662;2024-02-16T08:22:47;0.90;;;0.75;;
24650;SDS011;12783;48.824;8.662;2024-02-16T08:25:14;1.10;;;0.65;;
24650;SDS011;12783;48.824;8.662;2024-02-16T08:27:41;3.22;;;0.95;;
24650;SDS011;12783;48.824;8.662;2024-02-16T08:30:09;3.45;;;1.00;;
24650;SDS011;12783;48.824;8.662;2024-02-16T08:32:38;2.30;;;1.00;;
24650;SDS011;12783;48.824;8.662;2024-02-16T08:35:05;1.65;;;0.95;;
24650;SDS011;12783;48.824;8.662;2024-02-16T08:37:33;3.10;;;1.60;;
24650;SDS011;12783;48.824;8.662;2024-02-16T08:40:00;4.13;;;2.33;;
24650;SDS011;12783;48.824;8.662;2024-02-16T08:42:28;15.27;;;2.30;;
24650;SDS011;12783;48.824;8.662;2024-02-16T08:44:55;2.35;;;1.08;;
24650;SDS011;12783;48.824;8.662;2024-02-16T08:47:22;4.00;;;1.17;;
24650;SDS011;12783;48.824;8.662;2024-02-16T08:49:49;1.77;;;0.95;;
24650;SDS011;12783;48.824;8.662;2024-02-16T08:52:16;1.80;;;1.05;;
24650;SDS011;12783;48.824;8.662;2024-02-16T08:54:43;7.40;;;0.68;;
24650;SDS011;12783;48.824;8.662;2024-02-16T08:57:11;2.03;;;1.17;;
24650;SDS011;12783;48.824;8.662;2024-02-16T08:59:38;2.60;;;1.30;;
24650;SDS011;12783;48.824;8.662;2024-02-16T09:02:05;1.52;;;0.90;;
24650;SDS011;12783;48.824;8.662;2024-02-16T09:04:32;2.25;;;1.25;;
24650;SDS011;12783;48.824;8.662;2024-02-16T09:06:59;3.05;;;1.23;;
24650;SDS011;12783;48.824;8.662;2024-02-16T09:09:27;1.67;;;1.00;;
24650;SDS011;12783;48.824;8.662;2024-02-16T09:11:54;1.98;;;1.00;;
24650;SDS011;12783;48.824;8.662;2024-02-16T09:14:21;1.17;;;0.90;;
24650;SDS011;12783;48.824;8.662;2024-02-16T09:16:49;2.15;;;1.02;;
24650;SDS011;12783;48.824;8.662;2024-02-16T09:19:19;2.38;;;1.00;;
24650;SDS011;12783;48.824;8.662;2024-02-16T09:21:48;3.88;;;0.98;;
24650;SDS011;12783;48.824;8.662;2024-02-16T09:24:23;3.00;;;1.00;;
24650;SDS011;12783;48.824;8.662;2024-02-16T09:26:55;1.80;;;0.80;;
24650;SDS011;12783;48.824;8.662;2024-02-16T09:29:24;3.35;;;0.98;;
24650;SDS011;12783;48.824;8.662;2024-02-16T09:31:51;2.92;;;1.05;;
24650;SDS011;12783;48.824;8.662;2024-02-16T09:34:19;2.15;;;0.80;;
24650;SDS011;12783;48.824;8.662;2024-02-16T09:36:46;1.70;;;0.93;;
24650;SDS011;12783;48.824;8.662;2024-02-16T09:39:12;9.73;;;0.98;;
24650;SDS011;12783;48.824;8.662;2024-02-16T09:41:41;0.95;;;0.82;;
24650;SDS011;12783;48.824;8.662;2024-02-16T09:44:11;5.55;;;0.93;;
24650;SDS011;12783;48.824;8.662;2024-02-16T09:46:38;4.43;;;2.05;;
24650;SDS011;12783;48.824;8.662;2024-02-16T09:49:06;6.90;;;1.30;;
24650;SDS011;12783;48.824;8.662;2024-02-16T09:51:36;1.88;;;0.95;;
24650;SDS011;12783;48.824;8.662;2024-02-16T09:54:04;3.00;;;0.90;;
24650;SDS011;12783;48.824;8.662;2024-02-16T09:56:31;3.13;;;1.23;;
24650;SDS011;12783;48.824;8.662;2024-02-16T09:58:59;1.85;;;0.88;;
24650;SDS011;12783;48.824;8.662;2024-02-16T10:01:26;6.25;;;1.17;;
24650;SDS011;12783;48.824;8.662;2024-02-16T10:03:59;6.60;;;1.80;;
24650;SDS011;12783;48.824;8.662;2024-02-16T10:06:46;3.53;;;1.13;;
24650;SDS011;12783;48.824;8.662;2024-02-16T10:09:22;3.15;;;1.08;;
24650;SDS011;12783;48.824;8.662;2024-02-16T10:11:55;8.70;;;1.52;;
24650;SDS011;12783;48.824;8.662;2024-02-16T10:14:24;1.30;;;0.95;;
24650;SDS011;12783;48.824;8.662;2024-02-16T10:17:01;11.02;;;1.30;;
24650;SDS011;12783;48.824;8.662;2024-02-16T10:19:33;1.65;;;1.10;;
24650;SDS011;12783;48.824;8.662;2024-02-16T10:22:09;9.25;;;1.20;;
24650;SDS011;12783;48.824;8.662;2024-02-16T10:24:38;2.33;;;1.13;;
24650;SDS011;12783;48.824;8.662;2024-02-16T10:27:13;6.32;;;1.30;;
24650;SDS011;12783;48.824;8.662;2024-02-16T10:29:43;2.92;;;1.17;;
24650;SDS011;12783;48.824;8.662;2024-02-16T10:32:12;3.28;;;1.35;;
24650;SDS011;12783;48.824;8.662;2024-02-16T10:34:40;6.63;;;1.40;;
24650;SDS011;12783;48.824;8.662;2024-02-16T10:37:09;4.65;;;1.35;;
24650;SDS011;12783;48.824;8.662;2024-02-16T10:39:36;3.72;;;1.27;;
24650;SDS011;12783;48.824;8.662;2024-02-16T10:42:07;31.65;;;1.83;;
24650;SDS011;12783;48.824;8.662;2024-02-16T10:44:37;3.85;;;1.48;;
24650;SDS011;12783;48.824;8.662;2024-02-16T10:47:04;5.50;;;1.42;;
24650;SDS011;12783;48.824;8.662;2024-02-16T10:49:31;7.50;;;1.33;;
24650;SDS011;12783;48.824;8.662;2024-02-16T10:51:59;3.78;;;1.70;;
24650;SDS011;12783;48.824;8.662;2024-02-16T10:54:28;6.28;;;1.05;;
24650;SDS011;12783;48.824;8.662;2024-02-16T10:56:59;4.72;;;1.63;;
24650;SDS011;12783;48.824;8.662;2024-02-16T10:59:26;8.23;;;1.80;;
24650;SDS011;12783;48.824;8.662;2024-02-16T11:01:59;8.90;;;1.70;;
24650;SDS011;12783;48.824;8.662;2024-02-16T11:04:36;4.30;;;1.40;;
24650;SDS011;12783;48.824;8.662;2024-02-16T11:07:11;4.82;;;1.92;;
24650;SDS011;12783;48.824;8.662;2024-02-16T11:09:42;8.30;;;1.85;;
24650;SDS011;12783;48.824;8.662;2024-02-16T11:12:15;5.05;;;1.38;;
24650;SDS011;12783;48.824;8.662;2024-02-16T11:17:12;4.45;;;1.88;;
24650;SDS011;12783;48.824;8.662;2024-02-16T11:19:42;5.00;;;1.80;;
24650;SDS011;12783;48.824;8.662;2024-02-16T11:22:15;6.30;;;1.60;;
24650;SDS011;12783;48.824;8.662;2024-02-16T11:24:47;3.53;;;1.40;;
24650;SDS011;12783;48.824;8.662;2024-02-16T11:27:16;6.22;;;1.48;;
24650;SDS011;12783;48.824;8.662;2024-02-16T11:29:48;5.43;;;1.30;;
24650;SDS011;12783;48.824;8.662;2024-02-16T11:32:18;7.55;;;1.70;;
24650;SDS011;12783;48.824;8.662;2024-02-16T11:34:46;6.45;;;1.70;;
24650;SDS011;12783;48.824;8.662;2024-02-16T11:37:14;4.70;;;1.23;;
24650;SDS011;12783;48.824;8.662;2024-02-16T11:39:42;5.82;;;1.70;;
24650;SDS011;12783;48.824;8.662;2024-02-16T11:42:12;8.93;;;1.83;;
24650;SDS011;12783;48.824;8.662;2024-02-16T11:44:49;6.28;;;1.52;;
24650;SDS011;12783;48.824;8.662;2024-02-16T11:47:20;7.28;;;1.55;;
24650;SDS011;12783;48.824;8.662;2024-02-16T11:52:41;5.65;;;1.40;;
24650;SDS011;12783;48.824;8.662;2024-02-16T11:55:08;7.90;;;2.17;;
24650;SDS011;12783;48.824;8.662;2024-02-16T11:57:37;8.25;;;1.85;;
24650;SDS011;12783;48.824;8.662;2024-02-16T12:00:05;7.03;;;1.88;;
24650;SDS011;12783;48.824;8.662;2024-02-16T12:02:41;7.10;;;1.67;;
24650;SDS011;12783;48.824;8.662;2024-02-16T12:05:09;4.03;;;1.48;;
24650;SDS011;12783;48.824;8.662;2024-02-16T12:07:39;8.77;;;1.58;;
24650;SDS011;12783;48.824;8.662;2024-02-16T12:10:07;4.47;;;1.27;;
24650;SDS011;12783;48.824;8.662;2024-02-16T12:12:35;2.50;;;1.40;;
24650;SDS011;12783;48.824;8.662;2024-02-16T12:15:04;5.72;;;1.30;;
24650;SDS011;12783;48.824;8.662;2024-02-16T12:17:32;10.55;;;1.70;;
24650;SDS011;12783;48.824;8.662;2024-02-16T12:19:59;7.82;;;1.70;;
24650;SDS011;12783;48.824;8.662;2024-02-16T12:22:27;7.28;;;1.52;;
24650;SDS011;12783;48.824;8.662;2024-02-16T12:24:54;3.70;;;1.48;;
24650;SDS011;12783;48.824;8.662;2024-02-16T12:27:21;5.03;;;1.60;;
24650;SDS011;12783;48.824;8.662;2024-02-16T12:29:48;8.68;;;2.28;;
24650;SDS011;12783;48.824;8.662;2024-02-16T12:32:14;3.95;;;1.52;;
24650;SDS011;12783;48.824;8.662;2024-02-16T12:34:45;9.00;;;1.55;;
24650;SDS011;12783;48.824;8.662;2024-02-16T12:37:13;7.22;;;1.60;;
24650;SDS011;12783;48.824;8.662;2024-02-16T12:39:40;4.65;;;1.80;;
24650;SDS011;12783;48.824;8.662;2024-02-16T12:42:07;8.18;;;1.73;;
24650;SDS011;12783;48.824;8.662;2024-02-16T12:44:35;8.15;;;1.73;;
24650;SDS011;12783;48.824;8.662;2024-02-16T12:47:01;11.68;;;1.83;;
24650;SDS011;12783;48.824;8.662;2024-02-16T12:49:29;4.60;;;1.60;;
24650;SDS011;12783;48.824;8.662;2024-02-16T12:51:56;7.82;;;1.60;;
24650;SDS011;12783;48.824;8.662;2024-02-16T12:54:23;4.90;;;1.88;;
24650;SDS011;12783;48.824;8.662;2024-02-16T12:56:51;14.25;;;1.65;;
24650;SDS011;12783;48.824;8.662;2024-02-16T12:59:19;6.78;;;1.63;;
24650;SDS011;12783;48.824;8.662;2024-02-16T13:01:46;5.50;;;1.70;;
24650;SDS011;12783;48.824;8.662;2024-02-16T13:04:13;3.90;;;1.50;;
24650;SDS011;12783;48.824;8.662;2024-02-16T13:06:48;3.63;;;1.50;;
24650;SDS011;12783;48.824;8.662;2024-02-16T13:09:15;4.20;;;1.63;;
24650;SDS011;12783;48.824;8.662;2024-02-16T13:11:42;3.35;;;1.42;;
24650;SDS011;12783;48.824;8.662;2024-02-16T13:14:10;6.90;;;1.38;;
24650;SDS011;12783;48.824;8.662;2024-02-16T13:16:37;9.32;;;1.67;;
24650;SDS011;12783;48.824;8.662;2024-02-16T13:19:04;7.38;;;1.50;;
24650;SDS011;12783;48.824;8.662;2024-02-16T13:21:31;6.18;;;1.67;;
24650;SDS011;12783;48.824;8.662;2024-02-16T13:23:58;4.70;;;1.42;;
24650;SDS011;12783;48.824;8.662;2024-02-16T13:26:25;7.20;;;1.80;;
24650;SDS011;12783;48.824;8.662;2024-02-16T13:28:53;6.15;;;1.85;;
24650;SDS011;12783;48.824;8.662;2024-02-16T13:31:21;3.33;;;1.40;;
24650;SDS011;12783;48.824;8.662;2024-02-16T13:33:49;6.85;;;1.38;;
24650;SDS011;12783;48.824;8.662;2024-02-16T13:36:19;3.15;;;1.23;;
24650;SDS011;12783;48.824;8.662;2024-02-16T13:38:47;4.30;;;1.15;;
24650;SDS011;12783;48.824;8.662;2024-02-16T13:41:15;7.72;;;1.70;;
24650;SDS011;12783;48.824;8.662;2024-02-16T13:43:45;4.05;;;1.50;;
24650;SDS011;12783;48.824;8.662;2024-02-16T13:46:13;5.93;;;1.27;;
24650;SDS011;12783;48.824;8.662;2024-02-16T13:48:41;4.25;;;1.38;;
24650;SDS011;12783;48.824;8.662;2024-02-16T13:51:09;5.43;;;1.23;;
24650;SDS011;12783;48.824;8.662;2024-02-16T13:53:36;5.47;;;1.58;;
24650;SDS011;12783;48.824;8.662;2024-02-16T13:56:04;5.97;;;1.15;;
24650;SDS011;12783;48.824;8.662;2024-02-16T13:58:32;6.78;;;1.50;;
24650;SDS011;12783;48.824;8.662;2024-02-16T14:01:01;2.88;;;1.25;;
24650;SDS011;12783;48.824;8.662;2024-02-16T14:03:30;8.77;;;1.40;;
24650;SDS011;12783;48.824;8.662;2024-02-16T14:05:58;7.18;;;1.23;;
24650;SDS011;12783;48.824;8.662;2024-02-16T14:08:27;5.43;;;1.45;;
24650;SDS011;12783;48.824;8.662;2024-02-16T14:10:54;2.78;;;1.17;;
24650;SDS011;12783;48.824;8.662;2024-02-16T14:13:21;4.55;;;1.42;;
24650;SDS011;12783;48.824;8.662;2024-02-16T14:15:51;3.85;;;1.13;;
24650;SDS011;12783;48.824;8.662;2024-02-16T14:18:18;5.72;;;1.23;;
24650;SDS011;12783;48.824;8.662;2024-02-16T14:20:59;2.38;;;1.17;;
24650;SDS011;12783;48.824;8.662;2024-02-16T14:23:27;9.60;;;1.52;;
24650;SDS011;12783;48.824;8.662;2024-02-16T14:25:55;4.88;;;1.45;;
24650;SDS011;12783;48.824;8.662;2024-02-16T14:28:23;6.15;;;1.30;;
24650;SDS011;12783;48.824;8.662;2024-02-16T14:30:49;6.22;;;1.58;;
24650;SDS011;12783;48.824;8.662;2024-02-16T14:33:16;7.22;;;1.30;;
24650;SDS011;12783;48.824;8.662;2024-02-16T14:35:51;4.25;;;1.27;;
24650;SDS011;12783;48.824;8.662;2024-02-16T14:38:18;4.63;;;1.40;;
24650;SDS011;12783;48.824;8.662;2024-02-16T14:40:45;3.15;;;1.50;;
24650;SDS011;12783;48.824;8.662;2024-02-16T14:43:12;9.23;;;1.58;;
24650;SDS011;12783;48.824;8.662;2024-02-16T14:45:39;2.72;;;1.27;;
24650;SDS011;12783;48.824;8.662;2024-02-16T14:48:06;5.80;;;1.23;;
24650;SDS011;12783;48.824;8.662;2024-02-16T14:50:33;3.85;;;1.60;;
24650;SDS011;12783;48.824;8.662;2024-02-16T14:53:02;4.22;;;1.40;;
24650;SDS011;12783;48.824;8.662;2024-02-16T14:55:30;4.78;;;1.70;;
24650;SDS011;12783;48.824;8.662;2024-02-16T14:57:57;3.22;;;1.63;;
24650;SDS011;12783;48.824;8.662;2024-02-16T15:00:24;8.40;;;1.70;;